Time;durP1;ratioP1;P1;durP2;ratioP2;P2;SDS_P1;SDS_P2;PMS_P1;PMS_P2;Temp;Humidity;BMP_temperature;BMP_pressure;BME280_temperature;BME280_humidity;BME280_pressure;Samples;Min_cycle;Max_cycle;Signal;HPM_P1;HPM_P2
2023/05/01 00:00:24;;;;;;;;;;;19.30;87.30;;;;;;5115561;28;19908;-64
2023/05/01 00:02:50;;;;;;;;;;;19.30;87.30;;;;;;5114300;28;20620;-63
2023/05/01 00:05:15;;;;;;;;;;;19.30;87.30;;;;;;5115040;28;20367;-64
2023/05/01 00:07:41;;;;;;;;;;;19.30;87.20;;;;;;5115036;28;19908;-63
2023/05/01 00:10:06;;;;;;;;;;;19.30;87.20;;;;;;5114878;28;19960;-65
2023/05/01 00:12:32;;;;;;;;;;;19.30;87.20;;;;;;5113589;28;19998;-65
2023/05/01 00:14:57;;;;;;;;;;;19.30;87.20;;;;;;5114196;27;19911;-64
2023/05/01 00:17:23;;;;;;;;;;;19.30;87.90;;;;;;5114676;28;19908;-64
2023/05/01 00:19:52;;;;;;;;;;;19.30;87.40;;;;;;5114632;28;19957;-63
2023/05/01 00:22:17;;;;;;;;;;;19.30;87.50;;;;;;5114066;28;19945;-63
2023/05/01 00:24:43;;;;;;;;;;;19.30;87.50;;;;;;5114602;28;19916;-64
2023/05/01 00:27:08;;;;;;;;;;;19.30;87.50;;;;;;5114817;28;19908;-64
2023/05/01 00:29:34;;;;;;;;;;;19.30;87.50;;;;;;5114780;27;19939;-64
2023/05/01 00:31:59;;;;;;;;;;;19.30;87.50;;;;;;5113697;28;19912;-64
2023/05/01 00:34:25;;;;;;;;;;;19.30;87.50;;;;;;5113333;28;19912;-64
2023/05/01 00:36:50;;;;;;;;;;;19.30;87.50;;;;;;5114404;28;19994;-64
2023/05/01 00:39:16;;;;;;;;;;;19.30;87.60;;;;;;5114712;28;20378;-64
2023/05/01 00:41:41;;;;;;;;;;;19.30;87.60;;;;;;5113784;28;19911;-64
2023/05/01 00:44:06;;;;;;;;;;;19.30;87.80;;;;;;5114587;28;19935;-64
2023/05/01 00:46:32;;;;;;;;;;;19.30;87.80;;;;;;5114302;28;19972;-65
2023/05/01 00:48:58;;;;;;;;;;;19.30;87.70;;;;;;5114267;28;20351;-65
2023/05/01 00:51:26;;;;;;;;;;;19.30;87.60;;;;;;5113286;28;19907;-65
2023/05/01 00:53:51;;;;;;;;;;;19.30;87.40;;;;;;5113729;28;19919;-65
2023/05/01 00:56:17;;;;;;;;;;;19.30;87.40;;;;;;5114171;28;20290;-66
2023/05/01 00:58:45;;;;;;;;;;;19.30;87.40;;;;;;5114035;28;19915;-66
2023/05/01 01:01:11;;;;;;;;;;;19.30;87.40;;;;;;5119033;28;19907;-65
2023/05/01 01:03:36;;;;;;;;;;;19.30;87.40;;;;;;5116550;27;19926;-65
2023/05/01 01:06:08;;;;;;;;;;;19.30;87.50;;;;;;5117536;28;19972;-65
2023/05/01 01:08:48;;;;;;;;;;;19.30;87.50;;;;;;5118380;28;19908;-65
2023/05/01 01:11:20;;;;;;;;;;;19.30;87.60;;;;;;5116604;27;19912;-64
2023/05/01 01:13:50;;;;;;;;;;;19.30;87.70;;;;;;5117417;28;19961;-64
2023/05/01 01:16:38;;;;;;;;;;;19.30;88.30;;;;;;5118228;27;20259;-64
2023/05/01 01:19:13;;;;;;;;;;;19.30;87.80;;;;;;5118594;28;20412;-64
2023/05/01 01:21:41;;;;;;;;;;;19.30;87.80;;;;;;5117391;27;19912;-65
2023/05/01 01:24:26;;;;;;;;;;;19.30;87.80;;;;;;5118338;28;19963;-64
2023/05/01 01:27:10;;;;;;;;;;;19.30;87.70;;;;;;5118064;28;19968;-64
2023/05/01 01:29:55;;;;;;;;;;;19.30;87.70;;;;;;5118194;28;19912;-64
2023/05/01 01:32:36;;;;;;;;;;;19.30;87.70;;;;;;5116064;27;19973;-64
2023/05/01 01:35:11;;;;;;;;;;;19.30;87.70;;;;;;5117019;28;19947;-61
2023/05/01 01:37:41;;;;;;;;;;;19.30;87.80;;;;;;5117868;28;19915;-63
2023/05/01 01:40:10;;;;;;;;;;;19.30;87.90;;;;;;5118159;28;19911;-63
2023/05/01 01:42:54;;;;;;;;;;;19.30;87.90;;;;;;5116890;27;19927;-64
2023/05/01 01:45:29;;;;;;;;;;;19.30;87.90;;;;;;5117975;28;19912;-64
2023/05/01 01:47:55;;;;;;;;;;;19.30;87.90;;;;;;5118088;28;20030;-63
2023/05/01 01:50:23;;;;;;;;;;;19.30;87.70;;;;;;5117645;27;19930;-65
2023/05/01 01:52:49;;;;;;;;;;;19.30;87.50;;;;;;5116811;27;19911;-65
2023/05/01 01:55:15;;;;;;;;;;;19.30;87.50;;;;;;5117821;28;19947;-64
2023/05/01 01:57:43;;;;;;;;;;;19.30;87.50;;;;;;5117770;28;19915;-64
2023/05/01 02:00:10;;;;;;;;;;;19.30;87.60;;;;;;5117214;28;19954;-63
2023/05/01 02:02:38;;;;;;;;;;;19.30;87.60;;;;;;5117695;28;19912;-64
2023/05/01 02:05:07;;;;;;;;;;;19.30;87.70;;;;;;5117673;28;19919;-64
2023/05/01 02:07:34;;;;;;;;;;;19.30;87.70;;;;;;5117643;28;20350;-64
2023/05/01 02:10:01;;;;;;;;;;;19.30;87.70;;;;;;5116159;28;19957;-64
2023/05/01 02:12:27;;;;;;;;;;;19.30;87.70;;;;;;5116369;28;19916;-65
2023/05/01 02:14:52;;;;;;;;;;;19.30;87.80;;;;;;5117490;28;20482;-64
2023/05/01 02:17:19;;;;;;;;;;;19.30;87.70;;;;;;5117082;28;19908;-65
2023/05/01 02:19:45;;;;;;;;;;;19.30;87.50;;;;;;5116744;28;20293;-65
2023/05/01 02:22:11;;;;;;;;;;;19.30;87.40;;;;;;5115664;28;19916;-64
2023/05/01 02:24:38;;;;;;;;;;;19.30;87.40;;;;;;5117032;28;19977;-64
2023/05/01 02:27:10;;;;;;;;;;;19.30;87.40;;;;;;5116990;28;19908;-64
2023/05/01 02:29:35;;;;;;;;;;;19.30;87.30;;;;;;5117214;28;19911;-64
2023/05/01 02:32:01;;;;;;;;;;;19.30;87.40;;;;;;5116355;28;20235;-65
2023/05/01 02:34:26;;;;;;;;;;;19.30;87.50;;;;;;5117433;28;19966;-64
2023/05/01 02:36:52;;;;;;;;;;;19.30;87.60;;;;;;5116733;28;19932;-65
2023/05/01 02:39:17;;;;;;;;;;;19.30;87.80;;;;;;5117016;28;19907;-64
2023/05/01 02:41:44;;;;;;;;;;;19.20;87.80;;;;;;5116179;28;20381;-64
2023/05/01 02:44:11;;;;;;;;;;;19.20;87.80;;;;;;5116369;28;19941;-65
2023/05/01 02:46:37;;;;;;;;;;;19.20;87.80;;;;;;5116826;28;20362;-64
2023/05/01 02:49:04;;;;;;;;;;;19.30;87.90;;;;;;5116827;28;19908;-64
2023/05/01 02:51:30;;;;;;;;;;;19.20;87.80;;;;;;5114418;27;19912;-65
2023/05/01 02:53:57;;;;;;;;;;;19.30;87.90;;;;;;5114396;27;19916;-65
2023/05/01 02:56:25;;;;;;;;;;;19.30;87.90;;;;;;5116656;28;19907;-65
2023/05/01 02:58:52;;;;;;;;;;;19.30;87.90;;;;;;5115369;28;19912;-65
2023/05/01 03:01:17;;;;;;;;;;;19.30;88.00;;;;;;5114459;27;20010;-64
2023/05/01 03:03:43;;;;;;;;;;;19.30;88.00;;;;;;5115926;27;20022;-64
2023/05/01 03:06:08;;;;;;;;;;;19.30;88.10;;;;;;5115186;28;19916;-64
2023/05/01 03:08:35;;;;;;;;;;;19.30;88.00;;;;;;5116481;28;20288;-64
2023/05/01 03:11:03;;;;;;;;;;;19.30;87.90;;;;;;5116161;28;20270;-65
2023/05/01 03:13:29;;;;;;;;;;;19.30;87.90;;;;;;5114341;28;19912;-64
2023/05/01 03:15:54;;;;;;;;;;;19.30;87.80;;;;;;5116270;28;19914;-65
2023/05/01 03:18:19;;;;;;;;;;;19.30;87.70;;;;;;5116635;28;19944;-65
2023/05/01 03:20:58;;;;;;;;;;;19.30;87.60;;;;;;5115931;28;20358;-64
2023/05/01 03:23:23;;;;;;;;;;;19.40;87.70;;;;;;5114733;27;19927;-65
2023/05/01 03:25:49;;;;;;;;;;;19.30;87.60;;;;;;5115118;28;19912;-65
2023/05/01 03:28:15;;;;;;;;;;;19.30;87.60;;;;;;5115758;28;19908;-64
2023/05/01 03:30:40;;;;;;;;;;;19.30;87.60;;;;;;5115987;28;19952;-64
2023/05/01 03:33:06;;;;;;;;;;;19.30;87.60;;;;;;5115209;28;19916;-64
2023/05/01 03:35:32;;;;;;;;;;;19.30;87.60;;;;;;5115847;28;19915;-65
2023/05/01 03:37:57;;;;;;;;;;;19.30;87.60;;;;;;5115883;27;19915;-65
2023/05/01 03:40:23;;;;;;;;;;;19.30;87.60;;;;;;5115491;28;20396;-65
2023/05/01 03:42:48;;;;;;;;;;;19.30;87.60;;;;;;5114592;28;19923;-65
2023/05/01 03:45:13;;;;;;;;;;;19.30;87.70;;;;;;5115818;28;20031;-65
2023/05/01 03:47:39;;;;;;;;;;;19.30;87.60;;;;;;5114828;28;20282;-64
2023/05/01 03:50:05;;;;;;;;;;;19.30;87.50;;;;;;5115319;28;19947;-64
2023/05/01 03:52:30;;;;;;;;;;;19.30;87.50;;;;;;5115263;28;19908;-65
2023/05/01 03:54:56;;;;;;;;;;;19.30;87.60;;;;;;5114733;28;19961;-65
2023/05/01 03:57:22;;;;;;;;;;;19.30;87.60;;;;;;5115195;28;20359;-66
2023/05/01 03:59:47;;;;;;;;;;;19.30;87.70;;;;;;5115488;27;19908;-65
2023/05/01 04:02:13;;;;;;;;;;;19.30;87.80;;;;;;5115017;28;20331;-63
2023/05/01 04:04:38;;;;;;;;;;;19.30;87.90;;;;;;5114916;27;19916;-65
2023/05/01 04:07:04;;;;;;;;;;;19.30;88.00;;;;;;5115360;28;19915;-64
2023/05/01 04:09:30;;;;;;;;;;;19.30;88.00;;;;;;5115602;28;20366;-64
2023/05/01 04:11:55;;;;;;;;;;;19.30;88.00;;;;;;5115222;28;20018;-64
2023/05/01 04:14:21;;;;;;;;;;;19.30;87.90;;;;;;5114071;27;20285;-64
2023/05/01 04:16:46;;;;;;;;;;;19.30;87.80;;;;;;5115162;28;19908;-64
2023/05/01 04:19:12;;;;;;;;;;;19.30;87.80;;;;;;5115121;28;20425;-64
2023/05/01 04:21:37;;;;;;;;;;;19.30;87.70;;;;;;5114769;28;19908;-64
2023/05/01 04:24:03;;;;;;;;;;;19.30;87.70;;;;;;5114029;28;19959;-64
2023/05/01 04:26:28;;;;;;;;;;;19.30;87.60;;;;;;5114811;28;20003;-65
2023/05/01 04:28:54;;;;;;;;;;;19.30;87.80;;;;;;5114918;28;19961;-64
2023/05/01 04:31:19;;;;;;;;;;;19.30;87.90;;;;;;5114648;28;20332;-65
2023/05/01 04:33:45;;;;;;;;;;;19.30;88.10;;;;;;5114342;28;19912;-64
2023/05/01 04:36:11;;;;;;;;;;;19.40;88.10;;;;;;5114369;28;19912;-65
2023/05/01 04:38:37;;;;;;;;;;;19.30;88.00;;;;;;5114533;28;19918;-64
2023/05/01 04:41:03;;;;;;;;;;;19.30;87.90;;;;;;5114506;28;19908;-65
2023/05/01 04:43:29;;;;;;;;;;;19.30;87.70;;;;;;5114235;28;19942;-64
2023/05/01 04:45:54;;;;;;;;;;;19.30;87.60;;;;;;5113071;28;20362;-65
2023/05/01 04:48:19;;;;;;;;;;;19.40;87.70;;;;;;5109258;28;19918;-65
2023/05/01 04:50:45;;;;;;;;;;;19.30;87.70;;;;;;5112674;28;19912;-65
2023/05/01 04:53:11;;;;;;;;;;;19.30;87.70;;;;;;5112280;28;19908;-64
2023/05/01 04:55:36;;;;;;;;;;;19.30;87.80;;;;;;5111746;28;19919;-63
2023/05/01 04:58:03;;;;;;;;;;;19.30;87.80;;;;;;5112280;28;20353;-64
2023/05/01 05:00:29;;;;;;;;;;;19.30;87.90;;;;;;5112539;28;19908;-63
2023/05/01 05:02:55;;;;;;;;;;;19.30;87.90;;;;;;5111299;28;20332;-61
2023/05/01 05:05:20;;;;;;;;;;;19.30;87.90;;;;;;5112576;28;19912;-64
2023/05/01 05:07:47;;;;;;;;;;;19.30;87.90;;;;;;5114149;28;19919;-64
2023/05/01 05:10:12;;;;;;;;;;;19.30;87.90;;;;;;5094401;28;19915;-65
2023/05/01 05:12:38;;;;;;;;;;;19.30;87.90;;;;;;5093791;28;19908;-64
2023/05/01 05:15:04;;;;;;;;;;;19.30;87.80;;;;;;5094055;28;19908;-61
2023/05/01 05:17:29;;;;;;;;;;;19.30;87.80;;;;;;5119020;27;19968;-65
2023/05/01 05:19:55;;;;;;;;;;;19.30;87.80;;;;;;5118365;28;19933;-65
2023/05/01 05:22:20;;;;;;;;;;;19.30;87.90;;;;;;5122353;28;20254;-65
2023/05/01 05:24:45;;;;;;;;;;;19.30;87.90;;;;;;5126562;28;19920;-65
2023/05/01 05:27:11;;;;;;;;;;;19.30;87.90;;;;;;5120927;28;19912;-65
2023/05/01 05:29:36;;;;;;;;;;;19.30;87.90;;;;;;5127586;28;19951;-64
2023/05/01 05:32:02;;;;;;;;;;;19.30;87.90;;;;;;5123989;28;19938;-65
2023/05/01 05:34:27;;;;;;;;;;;19.30;87.80;;;;;;5114795;28;19999;-65
2023/05/01 05:36:53;;;;;;;;;;;19.30;87.80;;;;;;5119368;28;19970;-65
2023/05/01 05:39:21;;;;;;;;;;;19.30;87.90;;;;;;5118816;28;19919;-65
2023/05/01 05:41:48;;;;;;;;;;;19.30;87.90;;;;;;5113874;28;19912;-65
2023/05/01 05:44:14;;;;;;;;;;;19.30;88.00;;;;;;5118299;28;19919;-65
2023/05/01 05:46:39;;;;;;;;;;;19.30;88.10;;;;;;5135316;27;19939;-64
2023/05/01 05:49:04;;;;;;;;;;;19.30;88.10;;;;;;5119612;27;20402;-65
2023/05/01 05:51:30;;;;;;;;;;;19.30;88.10;;;;;;5117664;28;19958;-65
2023/05/01 05:53:56;;;;;;;;;;;19.30;88.10;;;;;;5127482;27;20342;-66
2023/05/01 05:56:23;;;;;;;;;;;19.30;88.00;;;;;;5115999;27;19908;-65
2023/05/01 05:58:48;;;;;;;;;;;19.40;88.00;;;;;;5118255;27;19911;-65
2023/05/01 06:01:14;;;;;;;;;;;19.40;87.90;;;;;;5117444;28;19903;-65
2023/05/01 06:03:39;;;;;;;;;;;19.40;87.90;;;;;;5105856;27;20418;-65
2023/05/01 06:06:05;;;;;;;;;;;19.40;87.90;;;;;;5137870;27;19915;-66
2023/05/01 06:08:31;;;;;;;;;;;19.40;87.90;;;;;;5128888;27;19915;-65
2023/05/01 06:10:57;;;;;;;;;;;19.40;87.80;;;;;;5115877;27;20270;-65
2023/05/01 06:13:23;;;;;;;;;;;19.40;87.70;;;;;;5116368;27;19912;-65
2023/05/01 06:15:49;;;;;;;;;;;19.40;87.60;;;;;;5116813;27;19908;-65
2023/05/01 06:18:14;;;;;;;;;;;19.40;87.70;;;;;;5117362;28;19956;-65
2023/05/01 06:20:40;;;;;;;;;;;19.40;87.70;;;;;;5116219;27;20362;-65
2023/05/01 06:23:08;;;;;;;;;;;19.40;87.60;;;;;;5127563;27;19923;-65
2023/05/01 06:25:33;;;;;;;;;;;19.40;87.70;;;;;;5132588;27;19915;-65
2023/05/01 06:27:59;;;;;;;;;;;19.40;87.50;;;;;;5113882;27;19961;-65
2023/05/01 06:30:25;;;;;;;;;;;19.40;87.60;;;;;;5117119;28;19912;-65
2023/05/01 06:32:50;;;;;;;;;;;19.40;87.60;;;;;;5115519;28;19912;-64
2023/05/01 06:35:15;;;;;;;;;;;19.40;87.70;;;;;;5114706;28;20255;-64
2023/05/01 06:37:41;;;;;;;;;;;19.40;87.80;;;;;;5127713;27;19938;-63
2023/05/01 06:40:07;;;;;;;;;;;19.40;87.70;;;;;;5114578;28;19923;-64
2023/05/01 06:42:33;;;;;;;;;;;19.40;87.90;;;;;;5112838;27;19912;-62
2023/05/01 06:44:58;;;;;;;;;;;19.40;86.30;;;;;;5115553;28;19933;-62
2023/05/01 06:47:24;;;;;;;;;;;19.30;83.00;;;;;;5117015;28;20232;-67
2023/05/01 06:49:49;;;;;;;;;;;19.30;82.40;;;;;;5125137;27;19959;-67
2023/05/01 06:52:15;;;;;;;;;;;19.30;83.90;;;;;;5132019;27;19912;-67
2023/05/01 06:54:40;;;;;;;;;;;19.30;84.90;;;;;;5115086;28;19919;-66
2023/05/01 06:57:06;;;;;;;;;;;19.30;85.80;;;;;;5114851;28;20423;-65
2023/05/01 06:59:31;;;;;;;;;;;19.30;86.10;;;;;;5112171;28;19916;-66
2023/05/01 07:01:57;;;;;;;;;;;19.30;86.40;;;;;;5113041;28;19911;-66
2023/05/01 07:04:22;;;;;;;;;;;19.30;86.60;;;;;;5115241;27;19961;-65
2023/05/01 07:06:48;;;;;;;;;;;19.30;86.80;;;;;;5136693;27;19920;-66
2023/05/01 07:09:14;;;;;;;;;;;19.30;87.20;;;;;;5130674;27;19918;-66
2023/05/01 07:11:41;;;;;;;;;;;19.40;87.40;;;;;;5114947;28;19912;-65
2023/05/01 07:14:06;;;;;;;;;;;19.30;87.30;;;;;;5116236;28;19919;-66
2023/05/01 07:16:32;;;;;;;;;;;19.30;87.30;;;;;;5114688;27;19912;-65
2023/05/01 07:18:58;;;;;;;;;;;19.40;87.50;;;;;;5114192;27;20109;-66
2023/05/01 07:21:23;;;;;;;;;;;19.30;87.40;;;;;;5113620;28;19920;-66
2023/05/01 07:23:49;;;;;;;;;;;19.40;87.40;;;;;;5132302;27;19915;-63
2023/05/01 07:26:14;;;;;;;;;;;19.40;87.50;;;;;;5114522;27;19951;-65
2023/05/01 07:28:40;;;;;;;;;;;19.40;87.60;;;;;;5114577;28;19912;-64
2023/05/01 07:31:08;;;;;;;;;;;19.40;87.60;;;;;;5116040;28;19912;-66
2023/05/01 07:33:33;;;;;;;;;;;19.40;87.60;;;;;;5126006;27;19918;-65
2023/05/01 07:35:59;;;;;;;;;;;19.40;87.40;;;;;;5131732;27;19912;-64
2023/05/01 07:38:25;;;;;;;;;;;19.40;87.40;;;;;;5113776;28;19912;-65
2023/05/01 07:40:53;;;;;;;;;;;19.40;87.50;;;;;;5114052;28;20049;-65
2023/05/01 07:43:19;;;;;;;;;;;19.40;87.50;;;;;;5129343;27;19919;-66
2023/05/01 07:45:56;;;;;;;;;;;19.40;87.50;;;;;;5115265;28;19949;-65
2023/05/01 07:48:21;;;;;;;;;;;19.40;87.60;;;;;;5115484;27;19919;-65
2023/05/01 07:50:47;;;;;;;;;;;19.40;87.60;;;;;;5115480;28;20002;-65
2023/05/01 07:53:12;;;;;;;;;;;19.40;87.50;;;;;;5127631;27;19964;-65
2023/05/01 07:55:37;;;;;;;;;;;19.40;87.40;;;;;;5135928;27;19915;-65
2023/05/01 07:58:03;;;;;;;;;;;19.40;87.40;;;;;;5121575;27;19957;-65
2023/05/01 08:00:28;;;;;;;;;;;19.40;87.50;;;;;;5114802;28;19954;-65
2023/05/01 08:02:54;;;;;;;;;;;19.40;87.50;;;;;;5113659;28;19916;-66
2023/05/01 08:05:19;;;;;;;;;;;19.40;87.50;;;;;;5114500;27;19923;-65
2023/05/01 08:07:45;;;;;;;;;;;19.40;87.70;;;;;;5122856;27;19963;-63
2023/05/01 08:10:11;;;;;;;;;;;19.40;87.80;;;;;;5112014;28;20247;-65
2023/05/01 08:12:36;;;;;;;;;;;19.40;87.60;;;;;;5112193;28;19916;-63
2023/05/01 08:15:02;;;;;;;;;;;19.40;87.70;;;;;;5125748;27;19994;-65
2023/05/01 08:17:27;;;;;;;;;;;19.30;87.70;;;;;;5112581;27;19912;-70
2023/05/01 08:19:55;;;;;;;;;;;19.30;87.60;;;;;;5115171;28;19908;-72
2023/05/01 08:22:21;;;;;;;;;;;19.30;87.90;;;;;;5111176;27;19922;-72
2023/05/01 08:24:46;;;;;;;;;;;19.40;88.00;;;;;;5111895;27;19919;-72
2023/05/01 08:27:12;;;;;;;;;;;19.40;88.00;;;;;;5112647;27;19912;-68
2023/05/01 08:29:37;;;;;;;;;;;19.40;88.00;;;;;;5114526;28;19919;-68
2023/05/01 08:32:03;;;;;;;;;;;19.40;88.00;;;;;;5114257;28;20359;-68
2023/05/01 08:34:28;;;;;;;;;;;19.40;88.00;;;;;;5114236;28;19947;-68
2023/05/01 08:36:54;;;;;;;;;;;19.40;88.00;;;;;;5112535;28;19912;-65
2023/05/01 08:39:19;;;;;;;;;;;19.40;88.10;;;;;;5114544;27;20007;-68
2023/05/01 08:41:46;;;;;;;;;;;19.40;88.10;;;;;;5114119;28;19911;-68
2023/05/01 08:44:17;;;;;;;;;;;19.40;88.20;;;;;;5114329;28;19920;-61
2023/05/01 08:46:47;;;;;;;;;;;19.40;88.20;;;;;;5113482;28;19915;-66
2023/05/01 08:49:14;;;;;;;;;;;19.40;88.30;;;;;;5114117;28;19908;-68
2023/05/01 08:51:40;;;;;;;;;;;19.40;88.30;;;;;;5114539;28;20417;-70
2023/05/01 08:54:07;;;;;;;;;;;19.40;88.30;;;;;;5114689;28;20003;-66
2023/05/01 08:56:34;;;;;;;;;;;19.40;88.30;;;;;;5114366;28;19914;-66
2023/05/01 08:59:02;;;;;;;;;;;19.40;88.40;;;;;;5114101;28;19915;-64
2023/05/01 09:01:28;;;;;;;;;;;19.40;88.40;;;;;;5114040;28;20370;-67
2023/05/01 09:03:54;;;;;;;;;;;19.40;88.40;;;;;;5113402;28;19965;-66
2023/05/01 09:06:20;;;;;;;;;;;19.40;88.40;;;;;;5113766;28;19912;-64
2023/05/01 09:08:45;;;;;;;;;;;19.40;88.40;;;;;;5126123;28;20064;-62
2023/05/01 09:11:11;;;;;;;;;;;19.40;88.50;;;;;;5124845;28;19920;-62
2023/05/01 09:13:36;;;;;;;;;;;19.40;88.20;;;;;;5129629;27;19916;-63
2023/05/01 09:16:03;;;;;;;;;;;19.50;88.30;;;;;;5112159;28;19912;-64
2023/05/01 09:18:30;;;;;;;;;;;19.40;88.10;;;;;;5114043;28;19908;-63
2023/05/01 09:20:56;;;;;;;;;;;19.40;88.10;;;;;;5121221;27;20354;-60
2023/05/01 09:23:21;;;;;;;;;;;19.40;88.30;;;;;;5116222;27;20351;-63
2023/05/01 09:25:47;;;;;;;;;;;19.40;88.30;;;;;;5119140;27;19916;-63
2023/05/01 09:28:12;;;;;;;;;;;19.40;88.40;;;;;;5126327;27;19919;-63
2023/05/01 09:30:38;;;;;;;;;;;19.40;88.40;;;;;;5136253;27;20262;-63
2023/05/01 09:33:04;;;;;;;;;;;19.40;88.40;;;;;;5132881;27;19918;-63
2023/05/01 09:35:31;;;;;;;;;;;19.40;88.40;;;;;;5123123;27;19947;-64
2023/05/01 09:37:57;;;;;;;;;;;19.40;88.70;;;;;;5131512;27;19912;-64
2023/05/01 09:40:25;;;;;;;;;;;19.40;88.80;;;;;;5136805;27;20319;-64
2023/05/01 09:42:52;;;;;;;;;;;19.40;88.90;;;;;;5121479;27;19920;-65
2023/05/01 09:45:18;;;;;;;;;;;19.40;88.90;;;;;;5115456;28;19980;-65
2023/05/01 09:47:46;;;;;;;;;;;19.30;88.80;;;;;;5117145;28;20405;-65
2023/05/01 09:50:28;;;;;;;;;;;19.30;88.80;;;;;;5118330;27;19920;-64
2023/05/01 09:52:53;;;;;;;;;;;19.30;88.80;;;;;;5125523;27;19995;-64
2023/05/01 09:55:19;;;;;;;;;;;19.30;88.50;;;;;;5124262;27;20380;-64
2023/05/01 09:57:45;;;;;;;;;;;19.30;88.60;;;;;;5116571;27;19934;-64
2023/05/01 10:00:12;;;;;;;;;;;19.30;88.80;;;;;;5116385;28;20003;-65
2023/05/01 10:02:38;;;;;;;;;;;19.30;88.90;;;;;;5124278;27;19930;-64
2023/05/01 10:05:04;;;;;;;;;;;19.30;88.90;;;;;;5137875;27;19907;-65
2023/05/01 10:07:30;;;;;;;;;;;19.30;88.90;;;;;;5117375;27;20363;-64
2023/05/01 10:09:56;;;;;;;;;;;19.30;88.90;;;;;;5116140;28;19922;-65
2023/05/01 10:12:23;;;;;;;;;;;19.30;88.90;;;;;;5128803;27;19964;-65
2023/05/01 10:14:49;;;;;;;;;;;19.30;88.90;;;;;;5116319;27;19918;-66
2023/05/01 10:17:21;;;;;;;;;;;19.30;88.80;;;;;;5116924;28;20355;-66
2023/05/01 10:19:47;;;;;;;;;;;19.30;88.80;;;;;;5115828;28;20402;-65
2023/05/01 10:22:13;;;;;;;;;;;19.30;88.80;;;;;;5113776;28;19911;-63
2023/05/01 10:24:39;;;;;;;;;;;19.30;88.80;;;;;;5114845;28;19915;-65
2023/05/01 10:27:07;;;;;;;;;;;19.30;88.80;;;;;;5114905;28;20254;-64
2023/05/01 10:29:33;;;;;;;;;;;19.30;88.80;;;;;;5116492;28;20035;-64
2023/05/01 10:32:00;;;;;;;;;;;19.30;88.80;;;;;;5116695;27;19929;-64
2023/05/01 10:34:26;;;;;;;;;;;19.30;87.00;;;;;;5114343;27;19912;-67
2023/05/01 10:36:55;;;;;;;;;;;19.30;87.10;;;;;;5121936;27;19919;-64
2023/05/01 10:39:34;;;;;;;;;;;19.20;88.10;;;;;;5121746;27;19946;-64
2023/05/01 10:42:02;;;;;;;;;;;19.30;88.60;;;;;;5116814;28;20255;-64
2023/05/01 10:44:28;;;;;;;;;;;19.30;88.70;;;;;;5114803;27;20426;-65
2023/05/01 10:46:53;;;;;;;;;;;19.30;88.70;;;;;;5116698;28;20008;-64
2023/05/01 10:49:20;;;;;;;;;;;19.30;88.70;;;;;;5116511;28;20049;-65
2023/05/01 10:51:59;;;;;;;;;;;19.30;88.80;;;;;;5115826;28;19908;-64
2023/05/01 10:54:25;;;;;;;;;;;19.20;88.70;;;;;;5096344;28;19920;-65
2023/05/01 10:56:51;;;;;;;;;;;19.20;88.70;;;;;;5096234;28;19908;-64
2023/05/01 10:59:17;;;;;;;;;;;19.20;88.70;;;;;;5095770;28;20073;-64
2023/05/01 11:01:52;;;;;;;;;;;19.20;88.70;;;;;;5095668;28;19908;-64
2023/05/01 11:04:17;;;;;;;;;;;19.20;88.70;;;;;;5113742;27;19922;-64
2023/05/01 11:07:04;;;;;;;;;;;19.20;88.70;;;;;;5116289;28;20006;-64
2023/05/01 11:09:38;;;;;;;;;;;19.20;88.70;;;;;;5116609;27;20006;-64
2023/05/01 11:12:04;;;;;;;;;;;19.20;88.70;;;;;;5116214;28;20278;-64
2023/05/01 11:14:48;;;;;;;;;;;19.20;88.70;;;;;;5115185;28;19918;-65
2023/05/01 11:17:33;;;;;;;;;;;19.30;88.80;;;;;;5115862;28;19908;-62
2023/05/01 11:19:59;;;;;;;;;;;19.30;88.80;;;;;;5115921;28;19947;-64
2023/05/01 11:22:24;;;;;;;;;;;19.20;88.70;;;;;;5115525;28;19939;-64
2023/05/01 11:24:50;;;;;;;;;;;19.20;88.70;;;;;;5114415;28;19916;-64
2023/05/01 11:27:15;;;;;;;;;;;19.30;88.70;;;;;;5115628;28;20335;-64
2023/05/01 11:29:43;;;;;;;;;;;19.20;88.60;;;;;;5115261;28;19908;-64
2023/05/01 11:32:09;;;;;;;;;;;19.20;88.70;;;;;;5115488;28;20350;-64
2023/05/01 11:34:36;;;;;;;;;;;19.20;88.70;;;;;;5113182;28;19919;-65
2023/05/01 11:37:02;;;;;;;;;;;19.20;88.70;;;;;;5115742;28;20002;-65
2023/05/01 11:39:27;;;;;;;;;;;19.20;88.70;;;;;;5115755;28;19980;-64
2023/05/01 11:42:08;;;;;;;;;;;19.20;88.70;;;;;;5115291;28;19908;-65
2023/05/01 11:44:34;;;;;;;;;;;19.30;88.70;;;;;;5112908;28;19927;-64
2023/05/01 11:47:01;;;;;;;;;;;19.20;88.70;;;;;;5114668;28;19912;-64
2023/05/01 11:49:29;;;;;;;;;;;19.20;88.70;;;;;;5114270;28;20360;-64
2023/05/01 11:51:56;;;;;;;;;;;19.20;88.70;;;;;;5115505;28;20319;-65
2023/05/01 11:54:21;;;;;;;;;;;19.20;88.70;;;;;;5114768;28;19937;-64
2023/05/01 11:56:56;;;;;;;;;;;19.20;88.70;;;;;;5114995;28;19908;-64
2023/05/01 11:59:21;;;;;;;;;;;19.20;88.70;;;;;;5114018;28;19915;-64
2023/05/01 12:01:47;;;;;;;;;;;19.20;88.70;;;;;;5115118;28;19912;-64
2023/05/01 12:04:21;;;;;;;;;;;19.30;88.80;;;;;;5114345;28;20022;-63
2023/05/01 12:06:47;;;;;;;;;;;19.20;88.70;;;;;;5094473;28;20367;-64
2023/05/01 12:09:22;;;;;;;;;;;19.20;88.70;;;;;;5094490;28;19914;-64
2023/05/01 12:11:48;;;;;;;;;;;19.20;88.70;;;;;;5094743;28;19908;-64
2023/05/01 12:14:14;;;;;;;;;;;19.20;88.70;;;;;;5094421;28;19912;-64
2023/05/01 12:16:41;;;;;;;;;;;19.20;88.70;;;;;;5111759;28;20457;-64
2023/05/01 12:19:06;;;;;;;;;;;19.20;88.70;;;;;;5114563;28;19946;-64
2023/05/01 12:21:32;;;;;;;;;;;19.20;88.70;;;;;;5114842;28;19958;-64
2023/05/01 12:24:11;;;;;;;;;;;19.20;88.70;;;;;;5114709;28;19930;-64
2023/05/01 12:26:36;;;;;;;;;;;19.20;88.70;;;;;;5114052;28;19916;-65
2023/05/01 12:29:03;;;;;;;;;;;19.20;88.70;;;;;;5114462;28;19908;-64
2023/05/01 12:31:29;;;;;;;;;;;19.20;88.70;;;;;;5113474;28;19907;-64
2023/05/01 12:33:58;;;;;;;;;;;19.20;88.70;;;;;;5114718;28;20339;-64
2023/05/01 12:36:25;;;;;;;;;;;19.20;88.70;;;;;;5113581;28;20381;-64
2023/05/01 12:38:55;;;;;;;;;;;19.20;88.70;;;;;;5112758;28;19942;-64
2023/05/01 12:41:21;;;;;;;;;;;19.20;88.70;;;;;;5113704;28;19994;-61
2023/05/01 12:43:46;;;;;;;;;;;19.20;88.70;;;;;;5114390;28;19928;-63
2023/05/01 12:46:13;;;;;;;;;;;19.20;88.70;;;;;;5113819;28;20340;-64
2023/05/01 12:48:38;;;;;;;;;;;19.20;88.70;;;;;;5114510;28;19915;-65
2023/05/01 12:51:05;;;;;;;;;;;19.20;88.70;;;;;;5114306;28;19908;-64
2023/05/01 12:53:30;;;;;;;;;;;19.20;88.60;;;;;;5114420;28;19951;-65
2023/05/01 12:55:56;;;;;;;;;;;19.20;88.70;;;;;;5113327;27;19912;-63
2023/05/01 12:58:22;;;;;;;;;;;19.20;88.70;;;;;;5099166;27;20275;-61
2023/05/01 13:00:52;;;;;;;;;;;19.20;88.70;;;;;;5112272;27;19920;-64
2023/05/01 13:03:21;;;;;;;;;;;19.30;88.70;;;;;;5117999;27;19963;-64
2023/05/01 13:05:50;;;;;;;;;;;19.20;88.70;;;;;;5113827;28;19922;-63
2023/05/01 13:08:23;;;;;;;;;;;19.20;88.70;;;;;;5110687;28;19916;-61
2023/05/01 13:10:49;;;;;;;;;;;19.20;88.70;;;;;;5110801;28;19914;-64
2023/05/01 13:13:22;;;;;;;;;;;19.20;88.60;;;;;;5113111;28;19919;-64
2023/05/01 13:15:47;;;;;;;;;;;19.20;88.60;;;;;;5115024;28;20319;-64
2023/05/01 13:18:13;;;;;;;;;;;19.20;88.60;;;;;;5120331;27;19912;-64
2023/05/01 13:20:38;;;;;;;;;;;19.20;88.60;;;;;;5120892;28;19979;-64
2023/05/01 13:23:09;;;;;;;;;;;19.20;88.60;;;;;;5133384;27;19919;-64
2023/05/01 13:25:34;;;;;;;;;;;19.20;88.60;;;;;;5126689;27;19915;-64
2023/05/01 13:28:00;;;;;;;;;;;19.20;88.60;;;;;;5135035;27;20350;-64
2023/05/01 13:30:32;;;;;;;;;;;19.20;88.60;;;;;;5123933;27;19935;-56
2023/05/01 13:32:58;;;;;;;;;;;19.30;88.60;;;;;;5124111;28;19964;-64
2023/05/01 13:35:25;;;;;;;;;;;19.30;88.60;;;;;;5134265;27;19994;-64
2023/05/01 13:37:50;;;;;;;;;;;19.20;88.50;;;;;;5113496;27;19918;-65
2023/05/01 13:40:17;;;;;;;;;;;19.30;88.50;;;;;;5111250;28;20035;-64
2023/05/01 13:42:43;;;;;;;;;;;19.30;88.60;;;;;;5113580;28;19970;-64
2023/05/01 13:45:10;;;;;;;;;;;19.20;88.50;;;;;;5112649;28;20218;-64
2023/05/01 13:47:38;;;;;;;;;;;19.20;88.50;;;;;;5113807;28;19914;-65
2023/05/01 13:50:04;;;;;;;;;;;19.20;88.50;;;;;;5112636;28;19920;-64
2023/05/01 13:52:30;;;;;;;;;;;19.30;88.50;;;;;;5109642;28;19912;-64
2023/05/01 13:54:55;;;;;;;;;;;19.30;88.60;;;;;;5113011;28;19977;-64
2023/05/01 13:57:21;;;;;;;;;;;19.20;88.50;;;;;;5131939;27;19912;-64
2023/05/01 13:59:47;;;;;;;;;;;19.20;88.50;;;;;;5119036;27;19911;-66
2023/05/01 14:02:20;;;;;;;;;;;19.20;88.50;;;;;;5112513;28;19919;-65
2023/05/01 14:04:46;;;;;;;;;;;19.20;88.50;;;;;;5112595;28;20378;-65
2023/05/01 14:07:15;;;;;;;;;;;19.20;88.50;;;;;;5128694;27;19912;-62
2023/05/01 14:09:42;;;;;;;;;;;19.20;87.60;;;;;;5125704;27;20451;-63
2023/05/01 14:12:08;;;;;;;;;;;19.10;87.30;;;;;;5114564;27;19918;-63
2023/05/01 14:14:34;;;;;;;;;;;19.10;87.00;;;;;;5119280;27;19920;-62